Terminal Aerodrome Forecast
Issued by NWS

Home | Current Version | Previous Version | Text Only | Print | Product List | Glossary On
Versions: 1 2 3 4 5 6 7 8 9 10 11 12 13 14 15 16 17 18 19 20 21 22 23 24 25 26 27 28 29 30 31 32 33 34 35
000
FTUS44 KHGX 061138
TAFLBX
TAF
KLBX 061138Z 0612/0712 13006KT 3SM -SHRA BR SCT040 BKN060
      TEMPO 0612/0613 VRB20KT 1SM -TSRA BR BKN040CB OVC080
     FM061300 27005KT P6SM BKN040
     FM061500 29010G20KT P6SM SCT050 SCT100
     FM061900 32014G22KT P6SM SCT040
     FM070100 35008KT P6SM SKC
     FM070600 VRB03KT P6SM SKC
      TEMPO 0710/0712 2SM BR=

USA.gov is the U.S. government's official web portal to all federal, state and local government web resources and services.